Terminal Aerodrome Forecast
Issued by NWS Bismarck, ND

Home | Current Version | Previous Version | Graphics & Text | Print | Product List | Glossary On
Versions: 1 2 3 4 5 6 7 8 9 10 11 12 13 14 15 16 17
000
FTUS43 KBIS 082000 AAA
TAFISN
TAF AMD
KISN 082055Z 0821/0918 34015KT 5SM HZ BKN045
     FM090100 02005KT 5SM FU SKC=

USA.gov is the U.S. government's official web portal to all federal, state and local government web resources and services.